createdAt,value
2017-07-18T00:01:58.811Z,20.80
2017-07-18T00:04:27.110Z,20.70
2017-07-18T00:07:10.090Z,20.80
2017-07-18T00:09:38.399Z,20.80
2017-07-18T00:12:07.411Z,20.70
2017-07-18T00:14:35.657Z,20.70
2017-07-18T00:17:03.955Z,20.50
2017-07-18T00:19:32.184Z,20.30
2017-07-18T00:22:13.711Z,20.60
2017-07-18T00:24:41.969Z,20.60
2017-07-18T00:27:10.998Z,20.60
2017-07-18T00:29:39.289Z,20.60
2017-07-18T00:32:07.540Z,20.70
2017-07-18T00:37:37.304Z,20.60
2017-07-18T00:40:05.599Z,20.60
2017-07-18T00:42:33.865Z,20.60
2017-07-18T00:45:02.174Z,20.30
2017-07-18T00:53:30.926Z,20.50
2017-07-18T00:55:59.182Z,20.60
2017-07-18T00:58:27.428Z,20.60
2017-07-18T01:00:55.766Z,20.50
2017-07-18T01:03:50.382Z,20.60
2017-07-18T01:06:19.025Z,20.50
2017-07-18T01:08:47.291Z,20.50
2017-07-18T01:11:16.290Z,20.40
2017-07-18T01:13:44.624Z,20.40
2017-07-18T01:16:25.946Z,20.50
2017-07-18T01:24:54.627Z,20.40
2017-07-18T01:27:23.246Z,20.30
2017-07-18T01:29:51.506Z,20.40
2017-07-18T01:32:20.056Z,20.30
2017-07-18T01:34:48.329Z,20.20
2017-07-18T01:37:16.580Z,20.20
2017-07-18T01:39:44.916Z,20.20
2017-07-18T01:47:57.687Z,20.00
2017-07-18T01:50:25.943Z,20.00
2017-07-18T01:52:55.033Z,19.80
2017-07-18T01:55:23.312Z,19.80
2017-07-18T02:03:52.219Z,20.10
2017-07-18T02:06:20.450Z,19.90
2017-07-18T02:08:48.700Z,19.50
2017-07-18T02:14:37.664Z,19.20
2017-07-18T02:17:05.900Z,19.40
2017-07-18T02:19:34.128Z,19.50
2017-07-18T02:22:03.190Z,19.50
2017-07-18T02:27:32.736Z,19.40
2017-07-18T02:33:01.120Z,19.80
2017-07-18T02:35:29.368Z,19.80
2017-07-18T02:40:58.546Z,19.80
2017-07-18T02:43:38.784Z,19.80
2017-07-18T02:46:07.081Z,19.80
2017-07-18T02:48:36.099Z,19.70
2017-07-18T02:51:04.351Z,19.70
2017-07-18T02:59:34.069Z,19.70
2017-07-18T03:02:02.309Z,19.70
2017-07-18T03:04:30.600Z,19.70
2017-07-18T03:12:59.918Z,19.70
2017-07-18T03:15:28.180Z,19.70
2017-07-18T03:17:56.428Z,19.70
2017-07-18T03:23:25.737Z,19.30
2017-07-18T03:25:53.985Z,19.30
2017-07-18T03:28:22.235Z,19.40
2017-07-18T03:30:50.567Z,19.50
2017-07-18T03:36:19.470Z,19.10
2017-07-18T03:38:47.704Z,19.40
2017-07-18T03:41:16.024Z,19.50
2017-07-18T03:43:45.041Z,19.50
2017-07-18T03:46:13.301Z,19.50
2017-07-18T03:48:42.342Z,19.50
2017-07-18T03:54:00.465Z,19.50
2017-07-18T03:56:28.781Z,19.50
2017-07-18T03:58:57.060Z,19.50
2017-07-18T04:04:25.634Z,19.20
2017-07-18T04:06:53.886Z,19.30
2017-07-18T04:09:22.913Z,19.40
2017-07-18T04:11:51.188Z,19.40
2017-07-18T04:14:19.450Z,19.40
2017-07-18T04:16:48.087Z,19.40
2017-07-18T04:19:37.038Z,19.30
2017-07-18T04:22:05.320Z,19.20
2017-07-18T04:24:33.578Z,18.90
2017-07-18T04:27:01.875Z,18.20
2017-07-18T04:32:38.622Z,19.10
2017-07-18T04:35:06.928Z,19.10
2017-07-18T04:37:35.176Z,19.20
2017-07-18T04:40:03.483Z,19.20
2017-07-18T04:42:31.738Z,19.20
2017-07-18T04:48:00.437Z,19.10
2017-07-18T04:50:28.690Z,19.30
2017-07-18T04:52:56.944Z,19.30
2017-07-18T04:55:26.298Z,19.10
2017-07-18T04:58:13.992Z,19.10
2017-07-18T05:09:43.736Z,18.30
2017-07-18T05:18:23.462Z,18.10
2017-07-18T05:20:51.704Z,18.60
2017-07-18T05:38:23.715Z,19.20
2017-07-18T05:55:55.609Z,18.40
2017-07-18T05:58:37.266Z,18.90
2017-07-18T06:04:06.477Z,18.90
2017-07-18T06:06:40.353Z,18.90
2017-07-18T06:12:08.697Z,19.30
2017-07-18T06:17:39.046Z,18.80
2017-07-18T06:23:22.803Z,18.90
2017-07-18T06:31:51.599Z,19.30
2017-07-18T06:40:09.364Z,19.10
2017-07-18T06:48:39.035Z,19.70
2017-07-18T06:51:07.629Z,19.80
2017-07-18T07:03:05.413Z,21.00
2017-07-18T07:05:33.698Z,21.00
2017-07-18T07:08:02.313Z,20.50
2017-07-18T07:10:30.635Z,20.20
2017-07-18T07:12:59.644Z,20.20
2017-07-18T07:15:27.902Z,20.20
2017-07-18T07:17:59.374Z,20.20
2017-07-18T07:20:27.647Z,20.40
2017-07-18T07:22:55.897Z,20.60
2017-07-18T07:25:24.928Z,20.60
2017-07-18T07:27:53.184Z,20.60
2017-07-18T07:30:21.761Z,20.70
2017-07-18T07:32:49.999Z,20.70
2017-07-18T07:35:18.503Z,20.70
2017-07-18T07:37:46.835Z,20.90
2017-07-18T07:40:15.093Z,20.90
2017-07-18T07:42:43.336Z,21.20
2017-07-18T07:48:11.889Z,21.20
2017-07-18T07:50:46.729Z,22.20
2017-07-18T07:56:15.806Z,22.60
2017-07-18T07:58:44.037Z,22.80
2017-07-18T08:01:43.474Z,22.80
2017-07-18T08:04:11.702Z,22.80
2017-07-18T08:06:39.956Z,22.40
2017-07-18T08:11:45.475Z,23.30
2017-07-18T08:14:13.793Z,23.30
2017-07-18T08:16:42.045Z,23.40
2017-07-18T08:19:10.301Z,23.30
2017-07-18T08:21:39.638Z,23.20
2017-07-18T08:24:24.766Z,23.10
2017-07-18T08:26:53.851Z,23.80
2017-07-18T08:44:15.839Z,24.30
2017-07-18T08:47:07.387Z,24.60
2017-07-18T08:50:03.337Z,24.20
2017-07-18T08:52:38.234Z,24.40
2017-07-18T08:55:06.542Z,24.40
2017-07-18T08:58:02.540Z,24.00
2017-07-18T09:03:37.986Z,24.50
2017-07-18T09:09:06.848Z,24.80
2017-07-18T09:11:38.417Z,25.20
2017-07-18T09:14:06.739Z,25.20
2017-07-18T09:17:02.532Z,24.60
2017-07-18T09:26:02.979Z,24.50
2017-07-18T09:28:37.671Z,24.10
2017-07-18T09:31:06.083Z,25.20
2017-07-18T09:33:34.305Z,25.80
2017-07-18T09:36:06.119Z,25.80
2017-07-18T09:38:40.585Z,25.70
2017-07-18T09:41:08.865Z,25.70
2017-07-18T09:43:37.128Z,25.30
2017-07-18T09:46:05.388Z,25.00
2017-07-18T09:48:33.694Z,25.60
2017-07-18T09:51:05.262Z,25.90
2017-07-18T09:54:04.667Z,25.30
2017-07-18T09:57:03.576Z,25.70
2017-07-18T09:59:41.900Z,25.70
2017-07-18T10:02:10.125Z,26.60
2017-07-18T10:05:05.091Z,26.60
2017-07-18T10:08:03.981Z,26.60
2017-07-18T10:13:32.127Z,27.00
2017-07-18T10:16:01.141Z,26.60
2017-07-18T10:27:31.179Z,26.50
2017-07-18T10:30:06.424Z,26.20
2017-07-18T10:33:03.291Z,27.10
2017-07-18T10:39:02.773Z,27.20
2017-07-18T10:41:31.043Z,27.10
2017-07-18T10:44:05.421Z,26.60
2017-07-18T10:47:03.926Z,26.90
2017-07-18T10:55:29.617Z,27.40
2017-07-18T10:58:05.027Z,27.40
2017-07-18T11:00:33.423Z,27.70
2017-07-18T11:03:15.289Z,28.10
2017-07-18T11:05:43.630Z,28.20
2017-07-18T11:11:02.802Z,28.40
2017-07-18T11:13:38.680Z,28.40
2017-07-18T11:19:37.991Z,28.60
2017-07-18T11:22:06.998Z,28.80
2017-07-18T11:25:03.356Z,28.80
2017-07-18T11:30:38.961Z,28.10
2017-07-18T11:36:05.153Z,27.70
2017-07-18T11:39:03.060Z,27.70
2017-07-18T11:50:33.343Z,28.20
2017-07-18T11:56:36.282Z,28.60
2017-07-18T11:59:05.423Z,28.70
2017-07-18T12:01:40.804Z,27.90
2017-07-18T12:04:09.052Z,27.90
2017-07-18T12:06:37.310Z,28.00
2017-07-18T12:12:05.752Z,28.20
2017-07-18T12:14:34.020Z,29.10
2017-07-18T12:17:02.246Z,29.60
2017-07-18T12:19:30.562Z,29.00
2017-07-18T12:21:58.815Z,28.70
2017-07-18T12:24:27.055Z,29.00
2017-07-18T12:29:56.064Z,28.40
2017-07-18T12:32:24.323Z,28.00
2017-07-18T12:34:53.364Z,28.20
2017-07-18T12:37:21.666Z,28.10
2017-07-18T12:39:49.894Z,28.90
2017-07-18T12:45:37.739Z,29.30
2017-07-18T12:48:06.738Z,29.10
2017-07-18T12:50:35.780Z,29.80
2017-07-18T12:53:04.006Z,29.80
2017-07-18T12:55:39.487Z,29.40
2017-07-18T13:01:08.119Z,29.60
2017-07-18T13:03:36.383Z,30.00
2017-07-18T13:06:04.658Z,30.60
2017-07-18T13:08:32.894Z,31.00
2017-07-18T13:14:02.363Z,30.00
2017-07-18T13:16:30.609Z,30.00
2017-07-18T13:18:59.549Z,30.80
2017-07-18T13:21:27.870Z,31.20
2017-07-18T13:32:57.951Z,31.20
2017-07-18T13:35:26.203Z,31.80
2017-07-18T13:43:56.509Z,32.00
2017-07-18T13:46:55.397Z,32.10
2017-07-18T13:49:24.379Z,31.80
2017-07-18T14:06:56.816Z,32.90
2017-07-18T14:09:25.080Z,32.90
2017-07-18T14:11:54.070Z,33.80
2017-07-18T14:14:23.688Z,34.40
2017-07-18T14:16:52.683Z,34.00
2017-07-18T14:19:20.934Z,34.00
2017-07-18T14:33:50.399Z,34.60
2017-07-18T14:42:19.711Z,37.40
2017-07-18T14:44:47.950Z,35.80
2017-07-18T14:47:16.947Z,36.80
2017-07-18T14:52:46.007Z,37.30
2017-07-18T14:55:14.255Z,37.40
2017-07-18T14:57:42.510Z,37.10
2017-07-18T15:00:10.811Z,36.30
2017-07-18T15:05:39.672Z,36.20
2017-07-18T15:08:07.941Z,36.20
2017-07-18T15:10:36.165Z,35.90
2017-07-18T15:13:04.578Z,36.40
2017-07-18T15:15:32.794Z,36.30
2017-07-18T15:18:01.791Z,38.10
2017-07-18T15:20:30.079Z,38.10
2017-07-18T15:22:58.333Z,38.90
2017-07-18T15:25:26.587Z,39.30
2017-07-18T15:27:54.874Z,39.50
2017-07-18T15:36:39.470Z,39.40
2017-07-18T15:39:08.503Z,37.60
2017-07-18T15:41:36.764Z,37.60
2017-07-18T15:44:05.048Z,36.90
2017-07-18T15:49:35.259Z,38.70
2017-07-18T15:52:04.267Z,38.20
2017-07-18T15:54:32.731Z,38.10
2017-07-18T16:03:01.934Z,38.90
2017-07-18T16:05:30.168Z,38.70
2017-07-18T16:07:58.477Z,39.50
2017-07-18T16:10:26.778Z,40.30
2017-07-18T16:12:55.013Z,40.40
2017-07-18T16:15:23.259Z,40.40
2017-07-18T16:17:51.541Z,40.80
2017-07-18T16:20:19.808Z,40.70
2017-07-18T16:22:48.904Z,40.10
2017-07-18T16:28:17.348Z,40.40
2017-07-18T16:30:45.642Z,40.80
2017-07-18T16:33:13.890Z,38.60
2017-07-18T16:35:43.268Z,38.80
2017-07-18T16:41:38.485Z,37.90
2017-07-18T16:47:08.162Z,36.20
2017-07-18T16:49:36.394Z,36.10
2017-07-18T16:55:04.805Z,37.50
2017-07-18T17:00:33.115Z,37.50
2017-07-18T17:03:01.425Z,37.30
2017-07-18T17:05:29.653Z,37.30
2017-07-18T17:07:58.158Z,37.70
2017-07-18T17:13:26.718Z,38.30
2017-07-18T17:15:54.964Z,38.00
2017-07-18T17:18:23.223Z,38.20
2017-07-18T17:20:51.513Z,37.80
2017-07-18T17:23:39.710Z,38.20
2017-07-18T17:26:07.979Z,38.40
2017-07-18T17:28:36.235Z,39.00
2017-07-18T17:31:04.490Z,38.70
2017-07-18T17:42:35.480Z,37.70
2017-07-18T17:45:04.223Z,37.70
2017-07-18T17:47:32.472Z,38.00
2017-07-18T17:59:02.365Z,35.40
2017-07-18T18:01:30.654Z,35.30
2017-07-18T18:03:58.903Z,35.70
2017-07-18T18:06:27.255Z,36.30
2017-07-18T18:08:55.513Z,36.20
2017-07-18T18:11:23.761Z,36.40
2017-07-18T18:13:52.093Z,36.40
2017-07-18T18:16:21.142Z,36.90
2017-07-18T18:21:49.429Z,36.90
2017-07-18T18:24:18.021Z,36.50
2017-07-18T18:26:47.453Z,35.90
2017-07-18T18:29:16.515Z,35.90
2017-07-18T18:46:49.489Z,33.50
2017-07-18T18:55:19.245Z,34.00
2017-07-18T18:57:47.471Z,34.00
2017-07-18T19:00:38.277Z,33.70
2017-07-18T19:09:07.698Z,32.70
2017-07-18T19:14:38.621Z,33.40
2017-07-18T19:17:06.878Z,33.40
2017-07-18T19:19:35.193Z,33.30
2017-07-18T19:22:03.434Z,33.00
2017-07-18T19:24:31.675Z,32.80
2017-07-18T19:30:01.379Z,32.40
2017-07-18T19:32:29.624Z,32.30
2017-07-18T19:34:58.474Z,32.20
2017-07-18T19:37:26.771Z,32.10
2017-07-18T19:45:55.751Z,30.70
2017-07-18T19:48:25.262Z,30.60
2017-07-18T19:50:53.560Z,30.60
2017-07-18T19:53:21.820Z,30.50
2017-07-18T19:55:50.885Z,30.40
2017-07-18T20:10:21.433Z,28.10
2017-07-18T20:15:49.754Z,29.40
2017-07-18T20:18:17.996Z,29.80
2017-07-18T20:20:46.656Z,29.60
2017-07-18T20:26:14.856Z,29.50
2017-07-18T20:28:43.854Z,28.60
2017-07-18T20:31:12.109Z,28.60
2017-07-18T20:33:42.215Z,27.90
2017-07-18T20:39:11.228Z,27.90
2017-07-18T20:44:40.881Z,28.00
2017-07-18T20:47:09.902Z,28.00
2017-07-18T20:55:38.972Z,28.30
2017-07-18T20:58:07.210Z,28.40
2017-07-18T21:00:35.492Z,28.30
2017-07-18T21:03:03.770Z,28.20
2017-07-18T21:11:32.917Z,27.90
2017-07-18T21:14:01.174Z,27.80
2017-07-18T21:16:29.437Z,27.70
2017-07-18T21:18:58.463Z,27.60
2017-07-18T21:24:40.654Z,27.20
2017-07-18T21:27:10.395Z,27.10
2017-07-18T21:29:38.644Z,27.10
2017-07-18T21:35:13.377Z,27.00
2017-07-18T21:37:42.255Z,26.90
2017-07-18T21:40:10.499Z,26.80
2017-07-18T21:42:38.805Z,26.70
2017-07-18T21:45:07.080Z,26.40
2017-07-18T21:50:36.939Z,26.40
2017-07-18T21:53:05.200Z,26.40
2017-07-18T21:55:33.476Z,26.30
2017-07-18T21:58:02.778Z,25.80
2017-07-18T22:00:51.822Z,25.80
2017-07-18T22:06:20.257Z,25.90
2017-07-18T22:08:48.966Z,25.30
2017-07-18T22:11:17.212Z,25.20
2017-07-18T22:16:45.999Z,25.30
2017-07-18T22:19:15.100Z,25.50
2017-07-18T22:21:44.107Z,25.50
2017-07-18T22:24:13.099Z,25.40
2017-07-18T22:26:42.551Z,25.40
2017-07-18T22:29:10.813Z,25.40
2017-07-18T22:31:39.065Z,25.20
2017-07-18T22:34:37.702Z,25.20
2017-07-18T22:37:05.944Z,25.30
2017-07-18T22:42:41.420Z,25.20
2017-07-18T22:48:11.213Z,24.90
2017-07-18T22:50:39.464Z,24.90
2017-07-18T22:53:08.483Z,24.70
2017-07-18T22:55:36.860Z,24.70
2017-07-18T23:01:05.640Z,24.70
2017-07-18T23:03:34.736Z,24.70
2017-07-18T23:06:03.753Z,24.60
2017-07-18T23:08:32.005Z,24.50
2017-07-18T23:17:01.016Z,24.30
2017-07-18T23:19:29.349Z,24.30
2017-07-18T23:21:58.351Z,24.40
2017-07-18T23:27:39.979Z,23.80
2017-07-18T23:30:09.125Z,23.80
2017-07-18T23:32:38.148Z,24.00
2017-07-18T23:35:06.430Z,24.00
2017-07-18T23:37:34.679Z,24.00
2017-07-18T23:40:02.976Z,24.10
2017-07-18T23:42:39.318Z,24.10
2017-07-18T23:45:09.013Z,23.80
2017-07-18T23:47:38.022Z,23.20
2017-07-18T23:50:06.310Z,23.20
2017-07-18T23:55:35.507Z,22.70
2017-07-18T23:58:03.758Z,22.90
